Tabernash, Colorado
Current Conditions -  °F | °C
As of 4:31 AM on Tuesday 21 Oct 2014 (Local Time) from K0CO Reporting Station
Clear Clear  
Wind Chill: 23°   Ceiling: Unl
Heat Index: 32°   Visibility: 10mi
Dew Point: 30°   Wind: 13mph
Humidity: 93%   Direction: 280°W
Pressure: 30.41"   Gusts: 16mph
Location:  39.99°N, 105.84°W
Report Text: K0CO 211031Z AUTO 28011G14KT 10SM CLR 00/M01 A3041 RMK AO2
Loading
Personal Weather Stations






























Interactive Weather Map
Tropical Storm Tracking
New forecast layout! Learn more

10-Day Weather Forecast

Advertisements
Track Severe Weather on mobile